Terminal Aerodrome Forecast
Issued by NWS Huntsville, AL

Home | Current Version | Previous Version | Text Only | Print | Product List | Glossary On
Versions: 1 2 3 4 5 6 7 8 9 10 11 12 13 14
000
FTUS44 KHUN 271120
TAFMSL
TAF
KMSL 271120Z 2712/2812 01005KT P6SM SCT080 BKN250
     FM271500 01005KT P6SM SCT250
     FM271900 32005KT P6SM SKC
     FM280000 VRB02KT P6SM SKC=

USA.gov is the U.S. government's official web portal to all federal, state and local government web resources and services.